sensor_id;sensor_type;location;lat;lon;timestamp;P1;durP1;ratioP1;P2;durP2;ratioP2
59880;SDS011;45751;51.380;10.326;2022-10-16T00:00:48;5.90;;;1.98;;
59880;SDS011;45751;51.380;10.326;2022-10-16T00:03:15;5.97;;;1.80;;
59880;SDS011;45751;51.380;10.326;2022-10-16T00:05:42;5.50;;;1.77;;
59880;SDS011;45751;51.380;10.326;2022-10-16T00:08:12;6.35;;;1.90;;
59880;SDS011;45751;51.380;10.326;2022-10-16T00:10:39;10.55;;;3.05;;
59880;SDS011;45751;51.380;10.326;2022-10-16T00:13:06;12.25;;;6.13;;
59880;SDS011;45751;51.380;10.326;2022-10-16T00:15:34;7.20;;;2.95;;
59880;SDS011;45751;51.380;10.326;2022-10-16T00:18:03;9.25;;;3.40;;
59880;SDS011;45751;51.380;10.326;2022-10-16T00:20:33;6.45;;;2.45;;
59880;SDS011;45751;51.380;10.326;2022-10-16T00:23:01;6.75;;;2.50;;
59880;SDS011;45751;51.380;10.326;2022-10-16T00:25:27;6.18;;;1.92;;
59880;SDS011;45751;51.380;10.326;2022-10-16T00:27:54;7.72;;;2.33;;
59880;SDS011;45751;51.380;10.326;2022-10-16T00:30:21;6.35;;;2.10;;
59880;SDS011;45751;51.380;10.326;2022-10-16T00:32:48;5.82;;;1.92;;
59880;SDS011;45751;51.380;10.326;2022-10-16T00:35:14;5.90;;;1.77;;
59880;SDS011;45751;51.380;10.326;2022-10-16T00:37:41;5.95;;;2.10;;
59880;SDS011;45751;51.380;10.326;2022-10-16T00:40:08;5.78;;;1.73;;
59880;SDS011;45751;51.380;10.326;2022-10-16T00:42:35;6.35;;;1.80;;
59880;SDS011;45751;51.380;10.326;2022-10-16T00:45:02;6.30;;;2.03;;
59880;SDS011;45751;51.380;10.326;2022-10-16T00:47:34;6.20;;;2.00;;
59880;SDS011;45751;51.380;10.326;2022-10-16T00:50:07;8.55;;;2.10;;
59880;SDS011;45751;51.380;10.326;2022-10-16T00:52:37;5.75;;;1.85;;
59880;SDS011;45751;51.380;10.326;2022-10-16T00:55:07;5.45;;;1.98;;
59880;SDS011;45751;51.380;10.326;2022-10-16T00:57:35;6.63;;;2.03;;
59880;SDS011;45751;51.380;10.326;2022-10-16T01:00:04;5.00;;;1.67;;
59880;SDS011;45751;51.380;10.326;2022-10-16T01:02:32;5.35;;;1.73;;
59880;SDS011;45751;51.380;10.326;2022-10-16T01:04:59;6.03;;;1.70;;
59880;SDS011;45751;51.380;10.326;2022-10-16T01:10:24;5.70;;;1.55;;
59880;SDS011;45751;51.380;10.326;2022-10-16T01:12:59;6.00;;;2.00;;
59880;SDS011;45751;51.380;10.326;2022-10-16T01:18:21;5.10;;;1.70;;
59880;SDS011;45751;51.380;10.326;2022-10-16T01:28:24;10.55;;;2.00;;
59880;SDS011;45751;51.380;10.326;2022-10-16T01:30:58;5.90;;;1.98;;
59880;SDS011;45751;51.380;10.326;2022-10-16T01:33:31;5.93;;;2.00;;
59880;SDS011;45751;51.380;10.326;2022-10-16T01:36:13;5.38;;;1.80;;
59880;SDS011;45751;51.380;10.326;2022-10-16T01:38:44;5.50;;;1.67;;
59880;SDS011;45751;51.380;10.326;2022-10-16T01:41:22;5.47;;;1.70;;
59880;SDS011;45751;51.380;10.326;2022-10-16T01:43:58;5.47;;;1.70;;
59880;SDS011;45751;51.380;10.326;2022-10-16T01:49:03;5.50;;;1.90;;
59880;SDS011;45751;51.380;10.326;2022-10-16T01:51:31;9.40;;;2.08;;
59880;SDS011;45751;51.380;10.326;2022-10-16T01:54:00;6.82;;;1.77;;
59880;SDS011;45751;51.380;10.326;2022-10-16T01:56:28;6.60;;;1.83;;
59880;SDS011;45751;51.380;10.326;2022-10-16T01:58:57;5.90;;;2.10;;
59880;SDS011;45751;51.380;10.326;2022-10-16T02:01:33;5.82;;;1.83;;
59880;SDS011;45751;51.380;10.326;2022-10-16T02:04:10;6.68;;;2.70;;
59880;SDS011;45751;51.380;10.326;2022-10-16T02:06:47;6.90;;;1.80;;
59880;SDS011;45751;51.380;10.326;2022-10-16T02:09:14;6.13;;;2.05;;
59880;SDS011;45751;51.380;10.326;2022-10-16T02:11:43;5.85;;;2.03;;
59880;SDS011;45751;51.380;10.326;2022-10-16T02:14:10;6.82;;;2.22;;
59880;SDS011;45751;51.380;10.326;2022-10-16T02:16:38;7.30;;;2.17;;
59880;SDS011;45751;51.380;10.326;2022-10-16T02:19:13;6.55;;;2.28;;
59880;SDS011;45751;51.380;10.326;2022-10-16T02:21:49;6.78;;;2.10;;
59880;SDS011;45751;51.380;10.326;2022-10-16T02:27:24;5.68;;;2.13;;
59880;SDS011;45751;51.380;10.326;2022-10-16T02:29:53;7.30;;;1.80;;
59880;SDS011;45751;51.380;10.326;2022-10-16T02:32:27;6.97;;;2.63;;
59880;SDS011;45751;51.380;10.326;2022-10-16T02:34:57;6.28;;;2.20;;
59880;SDS011;45751;51.380;10.326;2022-10-16T02:37:26;7.25;;;2.10;;
59880;SDS011;45751;51.380;10.326;2022-10-16T02:39:55;6.40;;;2.30;;
59880;SDS011;45751;51.380;10.326;2022-10-16T02:42:37;7.15;;;2.15;;
59880;SDS011;45751;51.380;10.326;2022-10-16T02:45:06;6.45;;;2.20;;
59880;SDS011;45751;51.380;10.326;2022-10-16T02:47:34;5.97;;;2.20;;
59880;SDS011;45751;51.380;10.326;2022-10-16T02:50:01;6.30;;;2.72;;
59880;SDS011;45751;51.380;10.326;2022-10-16T02:52:28;6.10;;;2.35;;
59880;SDS011;45751;51.380;10.326;2022-10-16T02:54:55;6.57;;;2.63;;
59880;SDS011;45751;51.380;10.326;2022-10-16T02:57:21;6.97;;;2.50;;
59880;SDS011;45751;51.380;10.326;2022-10-16T02:59:49;6.70;;;2.60;;
59880;SDS011;45751;51.380;10.326;2022-10-16T03:02:15;6.38;;;2.38;;
59880;SDS011;45751;51.380;10.326;2022-10-16T03:04:42;6.15;;;2.30;;
59880;SDS011;45751;51.380;10.326;2022-10-16T03:07:09;5.85;;;2.55;;
59880;SDS011;45751;51.380;10.326;2022-10-16T03:09:36;5.78;;;2.17;;
59880;SDS011;45751;51.380;10.326;2022-10-16T03:12:02;6.25;;;2.58;;
59880;SDS011;45751;51.380;10.326;2022-10-16T03:14:29;6.75;;;2.30;;
59880;SDS011;45751;51.380;10.326;2022-10-16T03:16:56;5.70;;;2.40;;
59880;SDS011;45751;51.380;10.326;2022-10-16T03:19:23;6.35;;;2.40;;
59880;SDS011;45751;51.380;10.326;2022-10-16T03:21:50;6.47;;;1.98;;
59880;SDS011;45751;51.380;10.326;2022-10-16T03:24:16;6.60;;;2.03;;
59880;SDS011;45751;51.380;10.326;2022-10-16T03:26:43;8.02;;;2.53;;
59880;SDS011;45751;51.380;10.326;2022-10-16T03:29:10;7.10;;;2.47;;
59880;SDS011;45751;51.380;10.326;2022-10-16T03:31:37;6.43;;;2.20;;
59880;SDS011;45751;51.380;10.326;2022-10-16T03:34:03;6.47;;;2.50;;
59880;SDS011;45751;51.380;10.326;2022-10-16T03:36:30;10.52;;;2.38;;
59880;SDS011;45751;51.380;10.326;2022-10-16T03:38:57;6.18;;;2.33;;
59880;SDS011;45751;51.380;10.326;2022-10-16T03:41:24;8.98;;;2.47;;
59880;SDS011;45751;51.380;10.326;2022-10-16T03:43:51;6.90;;;2.38;;
59880;SDS011;45751;51.380;10.326;2022-10-16T03:46:18;6.60;;;2.45;;
59880;SDS011;45751;51.380;10.326;2022-10-16T03:48:45;6.13;;;2.22;;
59880;SDS011;45751;51.380;10.326;2022-10-16T03:51:12;7.00;;;2.92;;
59880;SDS011;45751;51.380;10.326;2022-10-16T03:53:38;6.38;;;2.65;;
59880;SDS011;45751;51.380;10.326;2022-10-16T03:56:05;5.80;;;2.25;;
59880;SDS011;45751;51.380;10.326;2022-10-16T03:58:32;7.28;;;2.17;;
59880;SDS011;45751;51.380;10.326;2022-10-16T04:00:59;6.40;;;2.35;;
59880;SDS011;45751;51.380;10.326;2022-10-16T04:03:26;8.05;;;2.58;;
59880;SDS011;45751;51.380;10.326;2022-10-16T04:05:53;6.28;;;2.35;;
59880;SDS011;45751;51.380;10.326;2022-10-16T04:08:20;6.22;;;2.03;;
59880;SDS011;45751;51.380;10.326;2022-10-16T04:10:47;6.05;;;2.40;;
59880;SDS011;45751;51.380;10.326;2022-10-16T04:13:13;6.47;;;2.42;;
59880;SDS011;45751;51.380;10.326;2022-10-16T04:15:40;5.82;;;2.28;;
59880;SDS011;45751;51.380;10.326;2022-10-16T04:18:07;5.72;;;2.30;;
59880;SDS011;45751;51.380;10.326;2022-10-16T04:20:34;6.25;;;2.55;;
59880;SDS011;45751;51.380;10.326;2022-10-16T04:23:01;6.93;;;2.50;;
59880;SDS011;45751;51.380;10.326;2022-10-16T04:25:28;6.45;;;2.17;;
59880;SDS011;45751;51.380;10.326;2022-10-16T04:27:54;8.82;;;2.90;;
59880;SDS011;45751;51.380;10.326;2022-10-16T04:30:22;6.32;;;2.33;;
59880;SDS011;45751;51.380;10.326;2022-10-16T04:32:49;6.28;;;2.40;;
59880;SDS011;45751;51.380;10.326;2022-10-16T04:35:17;8.73;;;2.72;;
59880;SDS011;45751;51.380;10.326;2022-10-16T04:37:45;7.95;;;2.88;;
59880;SDS011;45751;51.380;10.326;2022-10-16T04:40:12;6.53;;;2.40;;
59880;SDS011;45751;51.380;10.326;2022-10-16T04:42:39;8.27;;;2.50;;
59880;SDS011;45751;51.380;10.326;2022-10-16T04:45:07;6.35;;;2.17;;
59880;SDS011;45751;51.380;10.326;2022-10-16T04:47:40;6.65;;;2.40;;
59880;SDS011;45751;51.380;10.326;2022-10-16T04:50:06;7.60;;;2.75;;
59880;SDS011;45751;51.380;10.326;2022-10-16T04:52:34;6.18;;;2.22;;
59880;SDS011;45751;51.380;10.326;2022-10-16T04:55:05;6.40;;;2.47;;
59880;SDS011;45751;51.380;10.326;2022-10-16T04:57:33;6.28;;;2.20;;
59880;SDS011;45751;51.380;10.326;2022-10-16T05:00:00;6.18;;;2.47;;
59880;SDS011;45751;51.380;10.326;2022-10-16T05:02:26;7.95;;;2.40;;
59880;SDS011;45751;51.380;10.326;2022-10-16T05:04:53;6.55;;;2.08;;
59880;SDS011;45751;51.380;10.326;2022-10-16T05:07:20;5.15;;;1.92;;
59880;SDS011;45751;51.380;10.326;2022-10-16T05:09:47;6.90;;;2.58;;
59880;SDS011;45751;51.380;10.326;2022-10-16T05:12:13;6.25;;;2.13;;
59880;SDS011;45751;51.380;10.326;2022-10-16T05:14:40;5.63;;;2.05;;
59880;SDS011;45751;51.380;10.326;2022-10-16T05:17:07;6.20;;;2.10;;
59880;SDS011;45751;51.380;10.326;2022-10-16T05:19:34;6.93;;;2.38;;
59880;SDS011;45751;51.380;10.326;2022-10-16T05:22:00;6.65;;;2.17;;
59880;SDS011;45751;51.380;10.326;2022-10-16T05:24:27;6.32;;;2.03;;
59880;SDS011;45751;51.380;10.326;2022-10-16T05:26:54;9.95;;;2.25;;
59880;SDS011;45751;51.380;10.326;2022-10-16T05:29:21;8.10;;;2.30;;
59880;SDS011;45751;51.380;10.326;2022-10-16T05:31:51;7.30;;;2.15;;
59880;SDS011;45751;51.380;10.326;2022-10-16T05:34:19;6.57;;;2.15;;
59880;SDS011;45751;51.380;10.326;2022-10-16T05:36:46;6.75;;;2.33;;
59880;SDS011;45751;51.380;10.326;2022-10-16T05:39:14;7.93;;;2.38;;
59880;SDS011;45751;51.380;10.326;2022-10-16T05:41:42;6.03;;;2.17;;
59880;SDS011;45751;51.380;10.326;2022-10-16T05:44:09;6.47;;;1.90;;
59880;SDS011;45751;51.380;10.326;2022-10-16T05:46:36;5.88;;;2.13;;
59880;SDS011;45751;51.380;10.326;2022-10-16T05:49:03;5.53;;;2.00;;
59880;SDS011;45751;51.380;10.326;2022-10-16T05:51:30;6.75;;;2.28;;
59880;SDS011;45751;51.380;10.326;2022-10-16T05:53:56;6.70;;;2.38;;
59880;SDS011;45751;51.380;10.326;2022-10-16T05:56:23;9.25;;;2.45;;
59880;SDS011;45751;51.380;10.326;2022-10-16T05:58:50;6.53;;;2.40;;
59880;SDS011;45751;51.380;10.326;2022-10-16T06:01:17;6.63;;;2.38;;
59880;SDS011;45751;51.380;10.326;2022-10-16T06:03:45;6.88;;;2.13;;
59880;SDS011;45751;51.380;10.326;2022-10-16T06:06:13;7.55;;;2.15;;
59880;SDS011;45751;51.380;10.326;2022-10-16T06:08:42;6.25;;;2.22;;
59880;SDS011;45751;51.380;10.326;2022-10-16T06:11:11;6.30;;;2.53;;
59880;SDS011;45751;51.380;10.326;2022-10-16T06:13:39;6.55;;;2.67;;
59880;SDS011;45751;51.380;10.326;2022-10-16T06:16:09;6.35;;;2.35;;
59880;SDS011;45751;51.380;10.326;2022-10-16T06:18:36;7.13;;;2.10;;
59880;SDS011;45751;51.380;10.326;2022-10-16T06:21:07;6.60;;;2.50;;
59880;SDS011;45751;51.380;10.326;2022-10-16T06:23:36;7.50;;;2.67;;
59880;SDS011;45751;51.380;10.326;2022-10-16T06:26:07;7.40;;;2.42;;
59880;SDS011;45751;51.380;10.326;2022-10-16T06:28:42;6.60;;;2.55;;
59880;SDS011;45751;51.380;10.326;2022-10-16T06:31:09;7.18;;;2.80;;
59880;SDS011;45751;51.380;10.326;2022-10-16T06:33:37;7.07;;;2.80;;
59880;SDS011;45751;51.380;10.326;2022-10-16T06:36:06;10.30;;;2.65;;
59880;SDS011;45751;51.380;10.326;2022-10-16T06:38:35;6.60;;;2.30;;
59880;SDS011;45751;51.380;10.326;2022-10-16T06:41:02;6.22;;;2.25;;
59880;SDS011;45751;51.380;10.326;2022-10-16T06:43:29;7.00;;;2.60;;
59880;SDS011;45751;51.380;10.326;2022-10-16T06:46:04;8.27;;;2.17;;
59880;SDS011;45751;51.380;10.326;2022-10-16T06:48:34;7.55;;;2.83;;
59880;SDS011;45751;51.380;10.326;2022-10-16T06:51:01;6.30;;;2.13;;
59880;SDS011;45751;51.380;10.326;2022-10-16T06:53:34;6.63;;;1.67;;
59880;SDS011;45751;51.380;10.326;2022-10-16T06:56:10;7.25;;;1.92;;
59880;SDS011;45751;51.380;10.326;2022-10-16T06:58:45;6.68;;;2.47;;
59880;SDS011;45751;51.380;10.326;2022-10-16T07:01:13;6.53;;;2.00;;
59880;SDS011;45751;51.380;10.326;2022-10-16T07:03:42;5.93;;;2.00;;
59880;SDS011;45751;51.380;10.326;2022-10-16T07:06:12;6.57;;;2.20;;
59880;SDS011;45751;51.380;10.326;2022-10-16T07:08:41;6.60;;;2.05;;
59880;SDS011;45751;51.380;10.326;2022-10-16T07:11:10;6.88;;;1.98;;
59880;SDS011;45751;51.380;10.326;2022-10-16T07:13:39;8.05;;;2.90;;
59880;SDS011;45751;51.380;10.326;2022-10-16T07:16:09;11.15;;;2.40;;
59880;SDS011;45751;51.380;10.326;2022-10-16T07:18:41;6.78;;;1.73;;
59880;SDS011;45751;51.380;10.326;2022-10-16T07:21:12;6.20;;;1.80;;
59880;SDS011;45751;51.380;10.326;2022-10-16T07:23:41;8.55;;;3.28;;
59880;SDS011;45751;51.380;10.326;2022-10-16T07:26:09;9.00;;;3.65;;
59880;SDS011;45751;51.380;10.326;2022-10-16T07:28:36;10.27;;;3.88;;
59880;SDS011;45751;51.380;10.326;2022-10-16T07:31:09;7.28;;;2.20;;
59880;SDS011;45751;51.380;10.326;2022-10-16T07:33:37;5.43;;;1.80;;
59880;SDS011;45751;51.380;10.326;2022-10-16T07:36:06;8.18;;;3.42;;
59880;SDS011;45751;51.380;10.326;2022-10-16T07:38:37;6.90;;;2.33;;
59880;SDS011;45751;51.380;10.326;2022-10-16T07:41:05;7.75;;;2.85;;
59880;SDS011;45751;51.380;10.326;2022-10-16T07:43:33;9.80;;;2.00;;
59880;SDS011;45751;51.380;10.326;2022-10-16T07:46:00;6.13;;;1.90;;
59880;SDS011;45751;51.380;10.326;2022-10-16T07:48:32;5.72;;;1.80;;
59880;SDS011;45751;51.380;10.326;2022-10-16T07:51:00;5.07;;;1.40;;
59880;SDS011;45751;51.380;10.326;2022-10-16T07:53:31;7.80;;;1.80;;
59880;SDS011;45751;51.380;10.326;2022-10-16T07:55:59;6.50;;;1.77;;
59880;SDS011;45751;51.380;10.326;2022-10-16T07:58:30;5.57;;;1.70;;
59880;SDS011;45751;51.380;10.326;2022-10-16T08:00:57;6.85;;;1.73;;
59880;SDS011;45751;51.380;10.326;2022-10-16T08:03:25;7.05;;;1.83;;
59880;SDS011;45751;51.380;10.326;2022-10-16T08:05:52;7.25;;;2.05;;
59880;SDS011;45751;51.380;10.326;2022-10-16T08:08:19;5.25;;;1.50;;
59880;SDS011;45751;51.380;10.326;2022-10-16T08:10:46;5.55;;;1.38;;
59880;SDS011;45751;51.380;10.326;2022-10-16T08:13:16;5.77;;;1.70;;
59880;SDS011;45751;51.380;10.326;2022-10-16T08:15:43;5.50;;;1.40;;
59880;SDS011;45751;51.380;10.326;2022-10-16T08:18:11;6.57;;;1.52;;
59880;SDS011;45751;51.380;10.326;2022-10-16T08:20:39;9.60;;;1.92;;
59880;SDS011;45751;51.380;10.326;2022-10-16T08:23:07;7.65;;;1.48;;
59880;SDS011;45751;51.380;10.326;2022-10-16T08:25:35;4.47;;;1.38;;
59880;SDS011;45751;51.380;10.326;2022-10-16T08:28:03;4.32;;;1.33;;
59880;SDS011;45751;51.380;10.326;2022-10-16T08:30:31;5.43;;;1.50;;
59880;SDS011;45751;51.380;10.326;2022-10-16T08:32:59;4.95;;;1.10;;
59880;SDS011;45751;51.380;10.326;2022-10-16T08:35:27;5.43;;;1.38;;
59880;SDS011;45751;51.380;10.326;2022-10-16T08:37:53;5.53;;;1.52;;
59880;SDS011;45751;51.380;10.326;2022-10-16T08:40:24;6.97;;;1.63;;
59880;SDS011;45751;51.380;10.326;2022-10-16T08:43:00;6.63;;;2.15;;
59880;SDS011;45751;51.380;10.326;2022-10-16T08:48:53;5.68;;;1.40;;
59880;SDS011;45751;51.380;10.326;2022-10-16T08:51:29;6.22;;;1.35;;
59880;SDS011;45751;51.380;10.326;2022-10-16T08:54:03;5.30;;;1.17;;
59880;SDS011;45751;51.380;10.326;2022-10-16T08:56:31;4.20;;;1.38;;
59880;SDS011;45751;51.380;10.326;2022-10-16T08:58:59;4.95;;;1.25;;
59880;SDS011;45751;51.380;10.326;2022-10-16T09:01:38;5.85;;;1.23;;
59880;SDS011;45751;51.380;10.326;2022-10-16T09:07:01;4.60;;;1.20;;
59880;SDS011;45751;51.380;10.326;2022-10-16T09:09:53;4.85;;;1.50;;
59880;SDS011;45751;51.380;10.326;2022-10-16T09:12:39;6.57;;;1.20;;
59880;SDS011;45751;51.380;10.326;2022-10-16T09:15:26;11.30;;;4.15;;
59880;SDS011;45751;51.380;10.326;2022-10-16T09:23:36;3.95;;;1.00;;
59880;SDS011;45751;51.380;10.326;2022-10-16T09:26:04;4.88;;;1.30;;
59880;SDS011;45751;51.380;10.326;2022-10-16T09:28:35;4.57;;;1.02;;
59880;SDS011;45751;51.380;10.326;2022-10-16T09:31:02;4.05;;;1.00;;
59880;SDS011;45751;51.380;10.326;2022-10-16T09:33:30;4.75;;;0.95;;
59880;SDS011;45751;51.380;10.326;2022-10-16T09:36:02;4.32;;;1.10;;
59880;SDS011;45751;51.380;10.326;2022-10-16T09:38:34;3.70;;;0.90;;
59880;SDS011;45751;51.380;10.326;2022-10-16T09:41:03;4.63;;;1.17;;
59880;SDS011;45751;51.380;10.326;2022-10-16T09:43:40;4.85;;;1.30;;
59880;SDS011;45751;51.380;10.326;2022-10-16T09:46:34;3.88;;;0.93;;
59880;SDS011;45751;51.380;10.326;2022-10-16T09:49:05;4.20;;;0.98;;
59880;SDS011;45751;51.380;10.326;2022-10-16T09:51:46;3.97;;;0.93;;
59880;SDS011;45751;51.380;10.326;2022-10-16T09:54:15;4.25;;;0.95;;
59880;SDS011;45751;51.380;10.326;2022-10-16T09:56:46;3.78;;;1.08;;
59880;SDS011;45751;51.380;10.326;2022-10-16T09:59:21;6.90;;;0.95;;
59880;SDS011;45751;51.380;10.326;2022-10-16T10:01:53;2.88;;;0.75;;
59880;SDS011;45751;51.380;10.326;2022-10-16T10:04:22;3.33;;;0.88;;
59880;SDS011;45751;51.380;10.326;2022-10-16T10:06:55;3.78;;;0.90;;
59880;SDS011;45751;51.380;10.326;2022-10-16T10:09:24;3.50;;;0.80;;
59880;SDS011;45751;51.380;10.326;2022-10-16T10:11:57;3.13;;;0.70;;
59880;SDS011;45751;51.380;10.326;2022-10-16T10:14:42;5.97;;;2.03;;
59880;SDS011;45751;51.380;10.326;2022-10-16T10:17:19;3.20;;;0.82;;
59880;SDS011;45751;51.380;10.326;2022-10-16T10:25:12;3.35;;;0.80;;
59880;SDS011;45751;51.380;10.326;2022-10-16T10:31:08;3.20;;;0.80;;
59880;SDS011;45751;51.380;10.326;2022-10-16T10:38:46;3.15;;;0.70;;
59880;SDS011;45751;51.380;10.326;2022-10-16T10:55:52;5.28;;;1.23;;
59880;SDS011;45751;51.380;10.326;2022-10-16T11:07:16;2.92;;;0.73;;
59880;SDS011;45751;51.380;10.326;2022-10-16T11:10:03;2.75;;;0.73;;
59880;SDS011;45751;51.380;10.326;2022-10-16T11:12:55;3.60;;;0.90;;
59880;SDS011;45751;51.380;10.326;2022-10-16T11:15:35;3.83;;;1.20;;
59880;SDS011;45751;51.380;10.326;2022-10-16T11:20:49;3.97;;;0.80;;
59880;SDS011;45751;51.380;10.326;2022-10-16T11:23:22;3.47;;;0.90;;
59880;SDS011;45751;51.380;10.326;2022-10-16T11:26:11;3.22;;;0.77;;
59880;SDS011;45751;51.380;10.326;2022-10-16T11:28:47;4.45;;;0.90;;
59880;SDS011;45751;51.380;10.326;2022-10-16T11:34:09;2.15;;;0.68;;
59880;SDS011;45751;51.380;10.326;2022-10-16T11:36:45;3.63;;;0.80;;
59880;SDS011;45751;51.380;10.326;2022-10-16T11:39:24;2.50;;;0.65;;
59880;SDS011;45751;51.380;10.326;2022-10-16T11:45:03;2.60;;;0.60;;
59880;SDS011;45751;51.380;10.326;2022-10-16T11:47:51;2.72;;;0.70;;
59880;SDS011;45751;51.380;10.326;2022-10-16T11:50:28;3.42;;;0.80;;
59880;SDS011;45751;51.380;10.326;2022-10-16T11:55:57;2.15;;;0.60;;
59880;SDS011;45751;51.380;10.326;2022-10-16T11:58:31;5.65;;;0.73;;
59880;SDS011;45751;51.380;10.326;2022-10-16T12:03:56;3.63;;;0.70;;
59880;SDS011;45751;51.380;10.326;2022-10-16T12:06:44;1.88;;;0.50;;
59880;SDS011;45751;51.380;10.326;2022-10-16T12:09:31;2.97;;;0.70;;
59880;SDS011;45751;51.380;10.326;2022-10-16T12:12:00;3.20;;;0.90;;
59880;SDS011;45751;51.380;10.326;2022-10-16T12:14:35;1.95;;;0.60;;
59880;SDS011;45751;51.380;10.326;2022-10-16T12:17:25;4.38;;;0.95;;
59880;SDS011;45751;51.380;10.326;2022-10-16T12:25:21;5.55;;;0.80;;
59880;SDS011;45751;51.380;10.326;2022-10-16T12:30:28;3.70;;;0.60;;
59880;SDS011;45751;51.380;10.326;2022-10-16T12:33:02;3.58;;;0.70;;
59880;SDS011;45751;51.380;10.326;2022-10-16T12:35:32;2.53;;;0.60;;
59880;SDS011;45751;51.380;10.326;2022-10-16T12:40:46;2.80;;;0.70;;
59880;SDS011;45751;51.380;10.326;2022-10-16T12:43:26;2.60;;;0.52;;
59880;SDS011;45751;51.380;10.326;2022-10-16T12:48:46;2.28;;;0.60;;
59880;SDS011;45751;51.380;10.326;2022-10-16T12:59:32;2.38;;;0.60;;
59880;SDS011;45751;51.380;10.326;2022-10-16T13:16:36;2.70;;;0.55;;
59880;SDS011;45751;51.380;10.326;2022-10-16T13:19:22;4.43;;;0.68;;
59880;SDS011;45751;51.380;10.326;2022-10-16T13:22:18;2.55;;;0.75;;
59880;SDS011;45751;51.380;10.326;2022-10-16T13:30:28;2.08;;;0.50;;
59880;SDS011;45751;51.380;10.326;2022-10-16T13:33:01;1.95;;;0.50;;
59880;SDS011;45751;51.380;10.326;2022-10-16T13:35:31;2.00;;;0.73;;
59880;SDS011;45751;51.380;10.326;2022-10-16T13:38:04;2.40;;;0.80;;
59880;SDS011;45751;51.380;10.326;2022-10-16T13:40:31;3.40;;;0.73;;
59880;SDS011;45751;51.380;10.326;2022-10-16T13:43:00;3.63;;;0.68;;
59880;SDS011;45751;51.380;10.326;2022-10-16T13:45:28;4.63;;;0.82;;
59880;SDS011;45751;51.380;10.326;2022-10-16T13:48:01;6.90;;;2.35;;
59880;SDS011;45751;51.380;10.326;2022-10-16T13:50:31;5.60;;;1.40;;
59880;SDS011;45751;51.380;10.326;2022-10-16T13:53:12;6.43;;;1.60;;
59880;SDS011;45751;51.380;10.326;2022-10-16T13:55:40;2.95;;;0.65;;
59880;SDS011;45751;51.380;10.326;2022-10-16T13:58:07;2.55;;;0.60;;
59880;SDS011;45751;51.380;10.326;2022-10-16T14:00:38;3.90;;;1.00;;
59880;SDS011;45751;51.380;10.326;2022-10-16T14:03:07;3.20;;;0.65;;
59880;SDS011;45751;51.380;10.326;2022-10-16T14:05:44;2.47;;;0.60;;
59880;SDS011;45751;51.380;10.326;2022-10-16T14:08:15;1.92;;;0.55;;
59880;SDS011;45751;51.380;10.326;2022-10-16T14:10:42;1.98;;;0.50;;
59880;SDS011;45751;51.380;10.326;2022-10-16T14:13:15;2.13;;;0.60;;
59880;SDS011;45751;51.380;10.326;2022-10-16T14:15:48;3.15;;;0.60;;
59880;SDS011;45751;51.380;10.326;2022-10-16T14:18:21;1.67;;;0.60;;
59880;SDS011;45751;51.380;10.326;2022-10-16T14:20:51;2.88;;;0.88;;
59880;SDS011;45751;51.380;10.326;2022-10-16T14:23:22;2.58;;;0.60;;
59880;SDS011;45751;51.380;10.326;2022-10-16T14:26:05;1.98;;;0.55;;
59880;SDS011;45751;51.380;10.326;2022-10-16T14:28:42;2.63;;;0.60;;
59880;SDS011;45751;51.380;10.326;2022-10-16T14:33:54;2.30;;;0.70;;
59880;SDS011;45751;51.380;10.326;2022-10-16T14:36:22;1.98;;;0.50;;
59880;SDS011;45751;51.380;10.326;2022-10-16T14:41:46;4.57;;;1.10;;
59880;SDS011;45751;51.380;10.326;2022-10-16T14:44:14;3.70;;;0.80;;
59880;SDS011;45751;51.380;10.326;2022-10-16T14:46:43;5.53;;;0.77;;
59880;SDS011;45751;51.380;10.326;2022-10-16T14:51:41;2.60;;;0.70;;
59880;SDS011;45751;51.380;10.326;2022-10-16T14:54:14;3.67;;;0.70;;
59880;SDS011;45751;51.380;10.326;2022-10-16T14:59:25;1.95;;;0.60;;
59880;SDS011;45751;51.380;10.326;2022-10-16T15:01:56;2.25;;;0.50;;
59880;SDS011;45751;51.380;10.326;2022-10-16T15:04:23;3.13;;;0.70;;
59880;SDS011;45751;51.380;10.326;2022-10-16T15:06:49;3.35;;;0.70;;
59880;SDS011;45751;51.380;10.326;2022-10-16T15:09:16;4.20;;;0.80;;
59880;SDS011;45751;51.380;10.326;2022-10-16T15:11:43;4.68;;;0.90;;
59880;SDS011;45751;51.380;10.326;2022-10-16T15:14:13;2.80;;;0.77;;
59880;SDS011;45751;51.380;10.326;2022-10-16T15:16:45;2.85;;;0.68;;
59880;SDS011;45751;51.380;10.326;2022-10-16T15:19:12;3.42;;;0.80;;
59880;SDS011;45751;51.380;10.326;2022-10-16T15:21:38;2.97;;;0.73;;
59880;SDS011;45751;51.380;10.326;2022-10-16T15:24:08;3.13;;;0.80;;
59880;SDS011;45751;51.380;10.326;2022-10-16T15:26:44;2.63;;;0.70;;
59880;SDS011;45751;51.380;10.326;2022-10-16T15:29:15;3.45;;;0.80;;
59880;SDS011;45751;51.380;10.326;2022-10-16T15:31:42;2.65;;;0.77;;
59880;SDS011;45751;51.380;10.326;2022-10-16T15:34:09;4.38;;;1.15;;
59880;SDS011;45751;51.380;10.326;2022-10-16T15:36:37;4.65;;;1.20;;
59880;SDS011;45751;51.380;10.326;2022-10-16T15:39:04;7.72;;;2.78;;
59880;SDS011;45751;51.380;10.326;2022-10-16T15:41:36;6.47;;;1.95;;
59880;SDS011;45751;51.380;10.326;2022-10-16T15:44:03;3.78;;;0.90;;
59880;SDS011;45751;51.380;10.326;2022-10-16T15:46:30;3.17;;;0.93;;
59880;SDS011;45751;51.380;10.326;2022-10-16T15:49:00;5.10;;;0.93;;
59880;SDS011;45751;51.380;10.326;2022-10-16T15:51:27;4.93;;;1.08;;
59880;SDS011;45751;51.380;10.326;2022-10-16T15:53:55;3.75;;;1.05;;
59880;SDS011;45751;51.380;10.326;2022-10-16T15:56:23;5.18;;;1.10;;
59880;SDS011;45751;51.380;10.326;2022-10-16T15:58:51;5.03;;;0.90;;
59880;SDS011;45751;51.380;10.326;2022-10-16T16:01:19;4.35;;;1.10;;
59880;SDS011;45751;51.380;10.326;2022-10-16T16:03:47;5.93;;;1.17;;
59880;SDS011;45751;51.380;10.326;2022-10-16T16:06:20;4.20;;;1.00;;
59880;SDS011;45751;51.380;10.326;2022-10-16T16:08:47;6.63;;;1.25;;
59880;SDS011;45751;51.380;10.326;2022-10-16T16:11:15;5.80;;;1.80;;
59880;SDS011;45751;51.380;10.326;2022-10-16T16:13:43;5.78;;;1.15;;
59880;SDS011;45751;51.380;10.326;2022-10-16T16:16:11;5.72;;;1.10;;
59880;SDS011;45751;51.380;10.326;2022-10-16T16:18:39;4.65;;;1.00;;
59880;SDS011;45751;51.380;10.326;2022-10-16T16:21:07;4.40;;;1.25;;
59880;SDS011;45751;51.380;10.326;2022-10-16T16:23:35;4.60;;;0.82;;
59880;SDS011;45751;51.380;10.326;2022-10-16T16:26:03;5.93;;;1.17;;
59880;SDS011;45751;51.380;10.326;2022-10-16T16:28:30;4.72;;;1.17;;
59880;SDS011;45751;51.380;10.326;2022-10-16T16:30:57;5.40;;;1.38;;
59880;SDS011;45751;51.380;10.326;2022-10-16T16:33:24;7.45;;;1.50;;
59880;SDS011;45751;51.380;10.326;2022-10-16T16:35:55;5.70;;;1.52;;
59880;SDS011;45751;51.380;10.326;2022-10-16T16:38:22;4.95;;;1.20;;
59880;SDS011;45751;51.380;10.326;2022-10-16T16:40:49;5.15;;;1.48;;
59880;SDS011;45751;51.380;10.326;2022-10-16T16:43:25;3.70;;;0.88;;
59880;SDS011;45751;51.380;10.326;2022-10-16T16:45:53;4.80;;;1.00;;
59880;SDS011;45751;51.380;10.326;2022-10-16T16:48:20;4.65;;;1.20;;
59880;SDS011;45751;51.380;10.326;2022-10-16T16:50:48;6.82;;;1.45;;
59880;SDS011;45751;51.380;10.326;2022-10-16T16:53:14;6.47;;;1.27;;
59880;SDS011;45751;51.380;10.326;2022-10-16T16:55:41;4.70;;;1.10;;
59880;SDS011;45751;51.380;10.326;2022-10-16T16:58:08;7.13;;;2.25;;
59880;SDS011;45751;51.380;10.326;2022-10-16T17:00:35;7.13;;;1.83;;
59880;SDS011;45751;51.380;10.326;2022-10-16T17:03:02;7.07;;;1.80;;
59880;SDS011;45751;51.380;10.326;2022-10-16T17:05:29;5.25;;;1.30;;